Time;durP1;ratioP1;P1;durP2;ratioP2;P2;SDS_P1;SDS_P2;PMS_P1;PMS_P2;Temp;Humidity;BMP_temperature;BMP_pressure;BME280_temperature;BME280_humidity;BME280_pressure;Samples;Min_cycle;Max_cycle;Signal;HPM_P1;HPM_P2
2022/05/12 00:01:58;;;;;;;5.72;1.65;;;;;;;12.97;82.77;101218.41;5261751;28;20020;-65
2022/05/12 00:04:31;;;;;;;6.72;1.50;;;;;;;12.80;81.21;101232.28;5262697;28;20398;-65
2022/05/12 00:07:03;;;;;;;5.05;1.58;;;;;;;12.69;81.87;101217.91;5269152;28;20398;-65
2022/05/12 00:09:34;;;;;;;7.15;1.70;;;;;;;12.64;81.90;101225.47;5266215;28;20032;-66
2022/05/12 00:12:06;;;;;;;5.78;1.83;;;;;;;12.66;83.04;101231.56;5268811;28;20029;-65
2022/05/12 00:14:38;;;;;;;7.10;1.67;;;;;;;12.55;82.33;101235.06;5262321;28;20583;-64
2022/05/12 00:17:09;;;;;;;5.50;1.70;;;;;;;12.45;82.38;101238.63;5262611;28;20048;-65
2022/05/12 00:19:40;;;;;;;6.90;1.58;;;;;;;12.39;82.78;101236.38;5270447;28;20032;-65
2022/05/12 00:22:11;;;;;;;7.68;1.90;;;;;;;12.48;83.85;101238.34;5265857;28;20034;-64
2022/05/12 00:24:43;;;;;;;6.25;1.63;;;;;;;12.37;83.69;101249.91;5260362;28;21548;-64
2022/05/12 00:27:14;;;;;;;5.28;1.60;;;;;;;12.34;84.58;101248.31;5266941;28;20442;-65
2022/05/12 00:29:45;;;;;;;6.10;1.80;;;;;;;12.34;84.99;101240.28;5271120;28;20039;-65
2022/05/12 00:32:16;;;;;;;3.88;1.40;;;;;;;12.18;83.84;101249.59;5265126;28;20086;-64
2022/05/12 00:34:48;;;;;;;5.72;1.50;;;;;;;12.12;84.66;101250.97;5265591;28;20048;-64
2022/05/12 00:37:19;;;;;;;3.67;1.30;;;;;;;12.08;85.07;101250.34;5276246;28;20029;-65
2022/05/12 00:39:50;;;;;;;5.63;1.88;;;;;;;11.98;85.06;101261.84;5271043;28;20028;-65
2022/05/12 00:42:21;;;;;;;4.57;1.60;;;;;;;11.93;84.97;101264.88;5268720;28;20084;-65
2022/05/12 00:44:53;;;;;;;5.40;1.60;;;;;;;11.92;85.19;101268.50;5255351;28;20366;-65
2022/05/12 00:47:24;;;;;;;6.35;1.52;;;;;;;11.91;85.74;101256.97;5256453;28;20081;-65
2022/05/12 00:49:55;;;;;;;4.55;1.73;;;;;;;11.98;88.14;101262.69;5255200;28;20031;-64
2022/05/12 00:52:29;;;;;;;7.32;2.38;;;;;;;11.93;87.51;101271.06;5255264;28;20028;-65
2022/05/12 00:55:15;;;;;;;6.93;1.73;;;;;;;11.85;87.75;101268.09;5257821;28;20360;-65
2022/05/12 00:57:51;;;;;;;7.65;1.67;;;;;;;11.77;88.06;101278.50;5258450;28;20036;-64
2022/05/12 01:00:26;;;;;;;7.45;1.77;;;;;;;11.70;87.77;101275.44;5254842;28;20028;-64
2022/05/12 01:03:02;;;;;;;5.60;1.63;;;;;;;11.60;87.62;101274.38;5255710;28;20090;-64
2022/05/12 01:05:33;;;;;;;6.50;1.70;;;;;;;11.71;88.43;101274.44;5264482;28;20045;-65
2022/05/12 01:08:12;;;;;;;9.20;2.00;;;;;;;11.73;88.34;101277.00;5253547;28;20113;-64
2022/05/12 01:10:52;;;;;;;4.80;1.80;;;;;;;11.63;90.63;101286.69;5257326;28;20109;-65
2022/05/12 01:13:24;;;;;;;5.20;1.50;;;;;;;11.53;89.53;101284.69;5256990;28;20039;-65
2022/05/12 01:15:58;;;;;;;6.75;2.05;;;;;;;11.57;89.25;101286.16;5256855;28;21352;-64
2022/05/12 01:18:32;;;;;;;6.05;1.65;;;;;;;11.43;90.05;101294.38;5270094;28;20098;-64
2022/05/12 01:21:04;;;;;;;7.13;2.20;;;;;;;11.52;90.15;101295.50;5265378;28;20032;-64
2022/05/12 01:23:38;;;;;;;8.07;1.95;;;;;;;11.40;90.51;101297.25;5259219;28;20032;-64
2022/05/12 01:26:15;;;;;;;7.15;2.15;;;;;;;11.36;90.73;101291.25;5267069;28;20085;-64
2022/05/12 01:28:46;;;;;;;5.63;1.90;;;;;;;11.33;91.34;101301.31;5269050;28;20029;-64
2022/05/12 01:31:21;;;;;;;9.15;2.30;;;;;;;11.39;92.49;101311.59;5264861;28;20547;-65
2022/05/12 01:33:52;;;;;;;8.75;2.17;;;;;;;11.26;91.78;101302.75;5266003;28;20499;-65
2022/05/12 01:36:23;;;;;;;9.23;2.40;;;;;;;11.29;91.86;101314.03;5267092;28;20031;-65
2022/05/12 01:38:55;;;;;;;8.82;2.33;;;;;;;11.41;93.04;101316.78;5266024;28;20063;-65
2022/05/12 01:41:27;;;;;;;6.70;2.70;;;;;;;11.35;93.63;101312.75;5270414;28;20030;-64
2022/05/12 01:44:00;;;;;;;8.93;2.10;;;;;;;11.20;93.33;101325.41;5265100;28;20017;-65
2022/05/12 01:46:31;;;;;;;11.13;3.03;;;;;;;11.09;92.96;101331.50;5268489;28;20036;-64
2022/05/12 01:49:03;;;;;;;13.38;2.78;;;;;;;11.05;93.65;101335.34;5268382;28;20482;-64
2022/05/12 01:51:35;;;;;;;7.97;2.42;;;;;;;11.11;94.19;101326.91;5269401;28;20355;-64
2022/05/12 01:54:07;;;;;;;10.20;2.60;;;;;;;11.18;95.28;101325.50;5259334;28;20517;-65
2022/05/12 01:56:38;;;;;;;11.10;3.33;;;;;;;10.97;94.08;101327.03;5268684;28;20028;-64
2022/05/12 01:59:09;;;;;;;10.65;2.50;;;;;;;10.96;94.00;101341.34;5276897;28;20035;-64
2022/05/12 02:01:40;;;;;;;9.32;2.97;;;;;;;11.02;95.21;101340.06;5264759;28;20032;-64
2022/05/12 02:04:12;;;;;;;9.02;2.67;;;;;;;10.92;95.06;101343.38;5264821;28;20127;-64
2022/05/12 02:06:45;;;;;;;8.55;2.65;;;;;;;10.85;94.57;101351.91;5265224;28;20063;-64
2022/05/12 02:09:19;;;;;;;9.88;2.40;;;;;;;10.85;95.50;101351.91;5269795;28;20043;-64
2022/05/12 02:11:50;;;;;;;10.15;2.85;;;;;;;10.84;95.83;101359.06;5269438;28;20032;-64
2022/05/12 02:14:21;;;;;;;8.77;2.95;;;;;;;10.86;96.20;101354.47;5269706;28;20043;-64
2022/05/12 02:16:53;;;;;;;7.53;2.85;;;;;;;10.77;96.22;101355.13;5270446;28;20032;-64
2022/05/12 02:19:24;;;;;;;9.85;2.80;;;;;;;10.84;96.33;101361.75;5270606;28;20056;-64
2022/05/12 02:21:57;;;;;;;8.90;2.80;;;;;;;10.66;94.89;101366.53;5273456;28;20114;-64
2022/05/12 02:24:29;;;;;;;6.45;2.35;;;;;;;10.62;95.45;101374.84;5269047;28;20029;-64
2022/05/12 02:27:01;;;;;;;11.25;3.30;;;;;;;10.61;95.90;101371.34;5267196;28;20042;-64
2022/05/12 02:29:32;;;;;;;9.27;2.58;;;;;;;10.63;95.90;101368.56;5280172;28;20036;-64
2022/05/12 02:32:03;;;;;;;9.80;3.00;;;;;;;10.62;96.47;101377.50;5272370;28;20611;-64
2022/05/12 02:34:36;;;;;;;10.35;2.70;;;;;;;10.70;96.95;101384.06;5272437;28;20033;-64
2022/05/12 02:37:08;;;;;;;8.10;2.70;;;;;;;10.64;95.20;101384.44;5275826;28;20028;-64
2022/05/12 02:39:40;;;;;;;9.27;2.35;;;;;;;10.49;95.58;101381.03;5264319;28;20179;-64
2022/05/12 02:42:12;;;;;;;8.57;2.30;;;;;;;10.40;96.04;101385.16;5268090;28;20466;-64
2022/05/12 02:44:43;;;;;;;8.10;2.85;;;;;;;10.37;96.15;101384.50;5272407;28;20040;-64
2022/05/12 02:47:15;;;;;;;16.42;3.13;;;;;;;10.32;96.39;101387.50;5273901;28;20037;-65
2022/05/12 02:49:46;;;;;;;12.95;2.80;;;;;;;10.43;97.41;101396.59;5273996;28;20032;-65
2022/05/12 02:52:18;;;;;;;10.27;3.10;;;;;;;10.45;98.01;101384.88;5270161;28;20119;-64
2022/05/12 02:54:49;;;;;;;11.52;3.28;;;;;;;10.29;97.48;101394.81;5263711;28;20442;-65
2022/05/12 02:57:21;;;;;;;11.02;3.05;;;;;;;10.21;96.97;101401.50;5268456;28;20075;-64
2022/05/12 02:59:52;;;;;;;12.13;3.65;;;;;;;10.18;97.61;101398.19;5266517;28;21311;-64
2022/05/12 03:02:23;;;;;;;11.10;3.47;;;;;;;10.20;97.71;101399.81;5262274;28;20116;-64
2022/05/12 03:04:55;;;;;;;9.82;4.03;;;;;;;10.21;97.30;101395.31;5266128;28;20036;-64
2022/05/12 03:07:26;;;;;;;8.57;3.17;;;;;;;10.23;98.47;101398.72;5264387;28;20478;-64
2022/05/12 03:09:58;;;;;;;11.98;3.42;;;;;;;10.25;98.33;101406.63;5265650;28;20766;-64
2022/05/12 03:12:30;;;;;;;12.27;4.13;;;;;;;10.07;98.26;101409.56;5268788;28;20031;-64
2022/05/12 03:15:02;;;;;;;10.77;4.28;;;;;;;10.05;98.50;101405.25;5263801;28;20028;-64
2022/05/12 03:17:34;;;;;;;13.48;4.20;;;;;;;10.13;99.48;101413.66;5263641;28;20063;-64
2022/05/12 03:20:09;;;;;;;13.43;5.18;;;;;;;9.95;99.75;101410.34;5263193;28;20139;-64
2022/05/12 03:22:41;;;;;;;11.95;4.78;;;;;;;10.08;100.00;101413.06;5265734;28;20383;-64
2022/05/12 03:25:14;;;;;;;13.43;4.93;;;;;;;9.93;100.00;101412.25;5260337;28;20029;-64
2022/05/12 03:27:46;;;;;;;15.05;5.93;;;;;;;9.99;100.00;101414.53;5261809;28;20508;-64
2022/05/12 03:30:20;;;;;;;12.88;5.15;;;;;;;10.05;100.00;101416.81;5262141;28;20377;-64
2022/05/12 03:32:51;;;;;;;16.65;5.25;;;;;;;9.96;100.00;101418.25;5261470;28;20082;-64
2022/05/12 03:35:23;;;;;;;15.75;6.18;;;;;;;9.91;100.00;101420.34;5262806;28;20059;-64
2022/05/12 03:37:55;;;;;;;13.43;5.53;;;;;;;9.85;100.00;101422.56;5267840;28;20040;-64
2022/05/12 03:40:26;;;;;;;11.75;6.28;;;;;;;10.01;100.00;101434.81;5257765;28;20017;-64
2022/05/12 03:42:58;;;;;;;15.18;6.53;;;;;;;9.83;100.00;101441.31;5257752;28;20036;-64
2022/05/12 03:45:29;;;;;;;14.20;6.32;;;;;;;9.78;100.00;101444.28;5257884;28;20032;-64
2022/05/12 03:48:01;;;;;;;15.68;6.90;;;;;;;9.82;100.00;101445.78;5263018;28;20512;-64
2022/05/12 03:50:32;;;;;;;21.40;7.82;;;;;;;9.77;100.00;101452.38;5264959;28;20035;-64
2022/05/12 03:53:03;;;;;;;16.58;7.75;;;;;;;9.80;100.00;101453.03;5270921;28;20440;-64
2022/05/12 03:55:35;;;;;;;17.65;7.60;;;;;;;9.82;100.00;101451.13;5260953;28;20151;-64
2022/05/12 03:58:06;;;;;;;18.90;8.30;;;;;;;9.71;100.00;101458.09;5257940;28;20036;-64
2022/05/12 04:00:38;;;;;;;19.55;8.40;;;;;;;9.74;100.00;101468.53;5252347;28;20028;-64
2022/05/12 04:03:09;;;;;;;19.40;9.90;;;;;;;9.84;100.00;101464.38;5252505;28;20162;-64
2022/05/12 04:05:41;;;;;;;20.83;8.82;;;;;;;9.80;100.00;101462.84;5267917;28;20126;-64
2022/05/12 04:08:13;;;;;;;21.50;8.88;;;;;;;9.79;100.00;101467.31;5249208;28;20127;-67
2022/05/12 04:10:44;;;;;;;18.33;9.43;;;;;;;9.61;100.00;101472.00;5256624;28;20039;-64
2022/05/12 04:13:16;;;;;;;24.33;10.32;;;;;;;9.58;100.00;101474.84;5259427;28;20029;-64
2022/05/12 04:15:47;;;;;;;26.02;10.85;;;;;;;9.55;100.00;101480.38;5257233;28;20921;-64
2022/05/12 04:18:19;;;;;;;22.15;10.45;;;;;;;9.72;100.00;101478.44;5264586;28;20039;-64
2022/05/12 04:20:52;;;;;;;20.75;10.25;;;;;;;9.74;100.00;101492.53;5261398;28;20363;-64
2022/05/12 04:23:23;;;;;;;25.87;11.33;;;;;;;9.76;100.00;101488.84;5259979;28;20029;-64
2022/05/12 04:25:55;;;;;;;26.23;11.90;;;;;;;9.76;100.00;101488.84;5264092;28;20074;-64
2022/05/12 04:28:26;;;;;;;22.15;10.57;;;;;;;9.74;100.00;101501.41;5262568;28;20032;-64
2022/05/12 04:30:58;;;;;;;24.08;11.48;;;;;;;9.73;100.00;101509.47;5256295;28;20501;-64
2022/05/12 04:36:19;;;;;;;21.35;11.90;;;;;;;9.87;100.00;101500.63;5261779;28;20040;-64
2022/05/12 04:38:51;;;;;;;26.98;12.70;;;;;;;9.93;100.00;101505.56;5258792;28;20059;-64
2022/05/12 04:41:22;;;;;;;27.92;13.57;;;;;;;9.96;100.00;101508.03;5265710;28;20083;-64
2022/05/12 04:43:54;;;;;;;29.33;14.30;;;;;;;9.83;100.00;101513.28;5255435;28;20179;-64
2022/05/12 04:46:26;;;;;;;24.00;12.40;;;;;;;10.00;100.00;101518.41;5251920;28;20040;-64
2022/05/12 04:48:58;;;;;;;28.55;14.07;;;;;;;10.14;100.00;101516.66;5256847;28;20387;-64
2022/05/12 04:51:29;;;;;;;29.30;13.57;;;;;;;9.99;100.00;101513.16;5257793;28;20509;-64
2022/05/12 04:54:01;;;;;;;28.27;13.60;;;;;;;9.97;100.00;101507.94;5264099;28;20032;-64
2022/05/12 04:56:32;;;;;;;29.95;13.82;;;;;;;9.98;100.00;101519.47;5261444;28;20043;-64
2022/05/12 04:59:05;;;;;;;29.42;14.73;;;;;;;10.00;100.00;101522.88;5258582;28;20037;-64
2022/05/12 05:01:36;;;;;;;29.27;14.90;;;;;;;10.13;100.00;101523.81;5257101;28;20100;-64
2022/05/12 05:04:08;;;;;;;29.58;14.93;;;;;;;10.16;100.00;101536.09;5260380;28;20032;-64
2022/05/12 05:06:39;;;;;;;27.65;15.02;;;;;;;10.27;100.00;101536.25;5257931;28;20044;-64
2022/05/12 05:09:10;;;;;;;32.58;15.60;;;;;;;10.27;100.00;101538.94;5257870;28;20040;-64
2022/05/12 05:11:42;;;;;;;29.17;16.20;;;;;;;10.40;100.00;101544.38;5259713;28;20115;-64
2022/05/12 05:14:13;;;;;;;31.98;16.15;;;;;;;10.40;100.00;101541.69;5258917;28;20071;-64
2022/05/12 05:16:44;;;;;;;31.50;16.63;;;;;;;10.52;100.00;101550.72;5259680;28;20110;-64
2022/05/12 05:19:16;;;;;;;32.03;17.05;;;;;;;10.43;100.00;101554.81;5261407;28;20039;-64
2022/05/12 05:21:48;;;;;;;33.13;17.27;;;;;;;10.43;100.00;101551.31;5263700;28;20115;-64
2022/05/12 05:24:19;;;;;;;34.67;17.23;;;;;;;10.53;100.00;101552.44;5258796;28;20032;-64
2022/05/12 05:26:51;;;;;;;35.45;17.52;;;;;;;10.49;100.00;101559.78;5262854;28;20032;-64
2022/05/12 05:29:22;;;;;;;34.33;18.00;;;;;;;10.54;100.00;101554.13;5259736;28;20032;-64
2022/05/12 05:31:53;;;;;;;32.45;17.70;;;;;;;10.67;100.00;101564.88;5268357;28;20122;-64
2022/05/12 05:34:25;;;;;;;38.97;19.80;;;;;;;10.64;100.00;101565.91;5262975;28;20036;-64
2022/05/12 05:36:56;;;;;;;36.53;17.85;;;;;;;10.71;100.00;101572.56;5269167;28;20043;-64
2022/05/12 05:39:27;;;;;;;38.70;18.92;;;;;;;10.75;100.00;101576.75;5270005;28;20028;-64
2022/05/12 05:42:04;;;;;;;33.95;19.92;;;;;;;10.85;100.00;101578.81;5268229;28;20032;-64
2022/05/12 05:44:36;;;;;;;35.00;19.40;;;;;;;10.87;100.00;101584.91;5264713;28;20497;-64
2022/05/12 05:47:08;;;;;;;37.00;20.10;;;;;;;10.92;100.00;101590.81;5262383;28;20032;-64
2022/05/12 05:49:41;;;;;;;43.63;22.23;;;;;;;10.97;100.00;101605.56;5257743;28;20082;-64
2022/05/12 05:55:22;;;;;;;38.88;20.90;;;;;;;11.17;100.00;101601.56;5215887;28;20049;-64
2022/05/12 05:57:53;;;;;;;39.47;20.90;;;;;;;11.21;100.00;101612.91;5222030;28;20035;-64
2022/05/12 06:00:25;;;;;;;36.72;21.08;;;;;;;11.21;100.00;101614.72;5241976;28;20090;-64
2022/05/12 06:02:56;;;;;;;42.55;20.92;;;;;;;11.32;100.00;101622.88;5264515;28;20054;-64
2022/05/12 06:05:28;;;;;;;36.15;21.63;;;;;;;11.34;100.00;101635.16;5273199;28;20028;-64
2022/05/12 06:07:59;;;;;;;36.97;21.60;;;;;;;11.38;100.00;101631.31;5272453;28;20052;-64
2022/05/12 06:10:31;;;;;;;37.88;22.42;;;;;;;11.42;100.00;101626.63;5274000;28;20056;-64
2022/05/12 06:13:03;;;;;;;37.92;20.98;;;;;;;11.50;100.00;101634.13;5272718;28;20062;-64
2022/05/12 06:15:35;;;;;;;35.60;21.80;;;;;;;11.54;100.00;101639.19;5262500;28;20048;-64
2022/05/12 06:18:12;;;;;;;33.72;21.98;;;;;;;11.59;100.00;101633.50;5269149;28;20036;-64
2022/05/12 06:20:45;;;;;;;37.88;22.17;;;;;;;11.66;100.00;101644.63;5255082;28;20082;-64
2022/05/12 06:23:17;;;;;;;35.05;21.38;;;;;;;11.78;100.00;101654.50;5263233;28;20028;-64
2022/05/12 06:25:50;;;;;;;38.30;21.10;;;;;;;11.94;100.00;101641.78;5261924;28;20185;-64
2022/05/12 06:28:21;;;;;;;37.95;22.05;;;;;;;12.00;100.00;101653.03;5262098;28;20032;-64
2022/05/12 06:30:53;;;;;;;36.72;21.23;;;;;;;12.08;100.00;101650.69;5258057;28;20066;-64
2022/05/12 06:33:24;;;;;;;33.13;21.27;;;;;;;12.21;100.00;101654.22;5263594;28;20123;-64
2022/05/12 06:35:58;;;;;;;35.35;21.52;;;;;;;12.37;100.00;101651.31;5260215;28;20438;-64
2022/05/12 06:38:29;;;;;;;35.90;21.85;;;;;;;12.47;100.00;101657.72;5259968;28;20812;-64
2022/05/12 06:41:03;;;;;;;36.33;20.50;;;;;;;12.63;100.00;101661.97;5253196;28;20032;-64
2022/05/12 06:43:36;;;;;;;30.60;19.77;;;;;;;12.80;100.00;101666.09;5254370;28;20024;-64
2022/05/12 06:46:09;;;;;;;31.83;20.52;;;;;;;12.97;100.00;101670.25;5258715;28;20029;-65
2022/05/12 06:48:42;;;;;;;29.70;19.23;;;;;;;13.02;100.00;101673.41;5262484;28;20032;-64
2022/05/12 06:51:14;;;;;;;30.23;19.27;;;;;;;13.03;100.00;101678.66;5256631;28;20028;-64
2022/05/12 06:53:45;;;;;;;24.77;17.40;;;;;;;13.00;99.02;101676.22;5259306;28;20028;-64
2022/05/12 06:56:17;;;;;;;28.08;18.92;;;;;;;13.05;99.30;101690.13;5265054;28;20544;-64
2022/05/12 06:58:51;;;;;;;29.02;18.42;;;;;;;13.05;98.75;101684.75;5259935;28;20143;-64
2022/05/12 07:01:23;;;;;;;29.23;17.95;;;;;;;13.03;98.35;101685.84;5261945;28;20051;-64
2022/05/12 07:03:57;;;;;;;29.15;17.88;;;;;;;12.99;97.35;101687.91;5260309;28;20060;-64
2022/05/12 07:06:28;;;;;;;30.92;18.95;;;;;;;12.97;96.73;101692.50;5261350;28;20090;-64
2022/05/12 07:08:59;;;;;;;27.08;18.17;;;;;;;13.09;96.89;101701.47;5257466;28;20201;-65
2022/05/12 07:11:31;;;;;;;29.98;17.77;;;;;;;13.15;94.46;101695.66;5249771;28;20383;-65
2022/05/12 07:14:03;;;;;;;23.00;16.80;;;;;;;13.30;95.00;101694.53;5258226;28;20425;-65
2022/05/12 07:16:34;;;;;;;25.27;17.92;;;;;;;13.49;94.08;101696.72;5258579;28;20523;-64
2022/05/12 07:19:05;;;;;;;24.00;17.85;;;;;;;13.72;95.79;101694.97;5256966;28;20055;-64
2022/05/12 07:27:17;;;;;;;25.88;15.82;;;;;;;14.48;89.42;101703.41;5265042;28;20044;-65
2022/05/12 07:29:49;;;;;;;20.58;15.30;;;;;;;14.58;86.18;101705.38;5254356;28;20039;-65
2022/05/12 07:32:21;;;;;;;19.05;13.55;;;;;;;14.38;83.00;101712.28;5254983;28;20056;-64
2022/05/12 07:34:52;;;;;;;18.55;13.45;;;;;;;14.26;83.29;101706.91;5257894;28;20794;-65
2022/05/12 07:37:24;;;;;;;21.30;14.35;;;;;;;14.17;86.29;101714.81;5254698;28;20032;-65
2022/05/12 07:39:55;;;;;;;22.40;15.45;;;;;;;14.20;86.82;101718.13;5255362;28;20279;-65
2022/05/12 07:42:27;;;;;;;16.73;13.57;;;;;;;14.19;84.86;101715.56;5257309;28;20051;-65
2022/05/12 07:44:58;;;;;;;25.20;14.18;;;;;;;14.21;85.24;101717.16;5256814;28;20040;-65
2022/05/12 07:47:29;;;;;;;16.95;11.80;;;;;;;14.28;82.51;101729.13;5260193;28;20522;-64
2022/05/12 07:50:01;;;;;;;17.77;12.32;;;;;;;14.46;82.52;101717.94;5267745;28;20040;-65
2022/05/12 07:52:32;;;;;;;21.13;13.30;;;;;;;14.59;81.41;101723.19;5273810;28;20103;-64
2022/05/12 07:55:04;;;;;;;16.90;12.52;;;;;;;14.85;80.60;101721.13;5271215;28;20050;-65
2022/05/12 07:57:35;;;;;;;18.42;11.63;;;;;;;15.21;80.03;101728.03;5274174;28;20473;-65
2022/05/12 08:00:07;;;;;;;16.83;11.25;;;;;;;15.28;76.66;101729.22;5275009;28;20029;-65
2022/05/12 08:02:39;;;;;;;17.38;11.60;;;;;;;15.33;76.26;101738.75;5273102;28;20031;-65
2022/05/12 08:05:10;;;;;;;19.33;12.20;;;;;;;15.54;76.08;101733.44;5272734;28;20108;-65
2022/05/12 08:07:43;;;;;;;16.60;12.27;;;;;;;15.78;76.38;101734.09;5270664;28;20129;-62
2022/05/12 08:10:15;;;;;;;16.45;8.98;;;;;;;15.91;71.10;101731.19;5267029;28;20077;-64
2022/05/12 08:12:47;;;;;;;15.85;10.05;;;;;;;15.90;70.30;101744.78;5270554;28;20021;-64
2022/05/12 08:15:19;;;;;;;15.63;10.68;;;;;;;15.85;69.63;101739.78;5267514;28;20966;-64
2022/05/12 08:17:53;;;;;;;16.63;10.75;;;;;;;15.96;71.16;101734.34;5271588;28;20040;-64
2022/05/12 08:20:25;;;;;;;14.38;9.52;;;;;;;16.05;67.99;101746.16;5272928;28;20077;-64
2022/05/12 08:22:56;;;;;;;14.15;9.32;;;;;;;16.11;68.16;101748.34;5272065;28;20040;-65
2022/05/12 08:25:29;;;;;;;15.95;10.43;;;;;;;16.18;68.37;101748.66;5274353;28;20028;-64
2022/05/12 08:28:00;;;;;;;15.00;11.18;;;;;;;16.32;69.30;101742.06;5272256;28;20032;-64
2022/05/12 08:30:32;;;;;;;17.35;9.93;;;;;;;16.37;66.10;101750.63;5273832;28;20029;-64
2022/05/12 08:33:03;;;;;;;9.77;7.68;;;;;;;16.34;63.83;101742.81;5272979;28;20036;-65
2022/05/12 08:35:34;;;;;;;12.77;7.72;;;;;;;16.33;64.72;101746.50;5268754;28;20626;-64
2022/05/12 08:38:06;;;;;;;13.27;6.88;;;;;;;16.28;63.33;101746.91;5274225;28;20455;-65
2022/05/12 08:40:46;;;;;;;10.63;6.60;;;;;;;16.33;65.10;101736.56;5275335;28;20510;-66
2022/05/12 08:43:43;;;;;;;11.82;7.43;;;;;;;16.62;66.99;101738.56;5272084;28;20060;-65
2022/05/12 08:46:28;;;;;;;11.90;8.20;;;;;;;16.84;65.74;101742.94;5267592;28;20048;-65
2022/05/12 08:49:18;;;;;;;12.50;7.30;;;;;;;16.98;65.45;101745.25;5273794;28;20317;-64
2022/05/12 08:51:55;;;;;;;9.30;5.28;;;;;;;16.75;60.10;101749.13;5269028;28;20374;-64
2022/05/12 08:54:26;;;;;;;9.60;4.80;;;;;;;16.62;59.62;101744.78;5267520;28;20024;-65
2022/05/12 08:57:07;;;;;;;8.23;4.20;;;;;;;16.66;58.98;101748.06;5272107;28;20063;-65
2022/05/12 08:59:40;;;;;;;7.70;3.35;;;;;;;16.75;59.07;101741.88;5271219;28;20151;-65
2022/05/12 09:02:23;;;;;;;10.32;7.10;;;;;;;16.62;60.64;101752.88;5274183;28;20493;-65
2022/05/12 09:05:06;;;;;;;10.77;6.10;;;;;;;16.55;59.78;101753.53;5272605;28;20036;-65
2022/05/12 09:07:40;;;;;;;12.70;6.32;;;;;;;16.30;60.47;101755.69;5277288;28;20024;-65
2022/05/12 09:10:11;;;;;;;;;;;;;;;16.38;61.93;101763.13;5275593;28;20029;-65
2022/05/12 09:12:49;;;;;;;10.75;6.30;;;;;;;16.17;62.64;101755.06;5274125;28;20124;-65
2022/05/12 09:15:26;;;;;;;12.77;5.97;;;;;;;16.38;61.38;101761.28;5274489;28;20137;-65
2022/05/12 09:18:29;;;;;;;10.82;5.88;;;;;;;16.65;59.71;101752.63;5276044;28;20059;-64
2022/05/12 09:21:05;;;;;;;8.63;6.28;;;;;;;17.04;59.54;101758.16;5268004;28;20070;-65
2022/05/12 09:23:37;;;;;;;10.93;6.65;;;;;;;17.31;58.79;101762.06;5278272;28;20115;-65
2022/05/12 09:26:39;;;;;;;10.80;6.82;;;;;;;17.42;59.36;101769.22;5274913;28;20032;-65
2022/05/12 09:29:27;;;;;;;12.43;6.57;;;;;;;17.32;55.25;101755.69;5279001;28;20020;-65
2022/05/12 09:32:02;;;;;;;10.27;6.28;;;;;;;16.99;54.53;101763.16;5278909;28;20534;-66
2022/05/12 09:34:39;;;;;;;10.63;6.25;;;;;;;16.82;54.45;101763.78;5278522;28;20033;-64
2022/05/12 09:37:14;;;;;;;10.15;6.45;;;;;;;16.58;57.94;101758.69;5277411;28;20025;-65
2022/05/12 09:39:50;;;;;;;11.18;7.43;;;;;;;16.69;56.37;101763.13;5278203;28;20028;-65
2022/05/12 09:42:27;;;;;;;8.10;5.15;;;;;;;16.71;57.04;101750.38;5278752;28;20024;-64
2022/05/12 09:45:02;;;;;;;9.73;5.68;;;;;;;16.80;54.81;101749.56;5277832;28;20050;-64
2022/05/12 09:47:34;;;;;;;11.40;6.43;;;;;;;16.98;57.25;101757.88;5273586;28;20070;-64
2022/05/12 09:50:20;;;;;;;8.98;6.43;;;;;;;17.13;57.92;101755.66;5276052;28;20040;-64
2022/05/12 09:52:55;;;;;;;8.32;5.45;;;;;;;17.46;54.81;101748.19;5276698;28;20033;-64
2022/05/12 09:55:28;;;;;;;7.88;4.78;;;;;;;17.57;52.20;101743.50;5274728;28;20036;-64
2022/05/12 09:58:14;;;;;;;9.25;3.88;;;;;;;17.77;53.10;101746.22;5276056;28;20051;-65
2022/05/12 10:01:05;;;;;;;7.85;3.58;;;;;;;17.87;53.93;101751.63;5275984;28;20032;-64
2022/05/12 10:09:32;;;;;;;7.43;3.95;;;;;;;18.39;50.99;101741.34;5273347;28;20036;-65
2022/05/12 10:12:23;;;;;;;5.28;2.60;;;;;;;18.34;48.79;101744.47;5274661;28;20039;-65
2022/05/12 10:14:59;;;;;;;5.35;2.40;;;;;;;17.97;48.27;101756.03;5272539;28;20020;-65
2022/05/12 10:17:45;;;;;;;6.05;2.78;;;;;;;17.88;48.96;101747.97;5269932;28;20048;-65
2022/05/12 10:20:23;;;;;;;6.65;3.13;;;;;;;17.85;52.40;101749.06;5278428;28;20482;-68
2022/05/12 10:23:08;;;;;;;8.07;4.18;;;;;;;17.73;49.98;101745.63;5276989;28;20028;-66
2022/05/12 10:25:47;;;;;;;6.15;4.13;;;;;;;17.67;49.86;101751.63;5275541;28;20032;-65
2022/05/12 10:28:42;;;;;;;7.38;4.00;;;;;;;17.61;48.98;101749.50;5277189;28;20488;-65
2022/05/12 10:31:25;;;;;;;6.45;3.17;;;;;;;17.63;50.33;101756.44;5273657;28;20122;-65
2022/05/12 10:34:24;;;;;;;9.57;3.38;;;;;;;17.80;51.14;101754.88;5269725;28;20065;-65
2022/05/12 10:37:26;;;;;;;7.97;5.00;;;;;;;18.05;51.09;101754.47;5270240;28;20032;-65
2022/05/12 10:40:23;;;;;;;14.70;4.90;;;;;;;18.05;49.12;101759.88;5276453;28;20031;-64
2022/05/12 10:43:22;;;;;;;8.18;3.53;;;;;;;17.98;49.59;101751.50;5275494;28;20040;-69
2022/05/12 10:46:13;;;;;;;6.18;2.92;;;;;;;18.07;50.79;101742.53;5273482;28;20044;-64
2022/05/12 10:48:53;;;;;;;5.55;3.00;;;;;;;17.94;50.55;101745.53;5275925;28;20383;-64
2022/05/12 10:51:30;;;;;;;5.75;2.63;;;;;;;18.01;52.67;101746.66;5275809;28;20032;-64
2022/05/12 10:54:25;;;;;;;9.05;3.42;;;;;;;18.15;50.13;101742.66;5270561;28;20420;-64
2022/05/12 10:57:27;;;;;;;6.75;2.58;;;;;;;18.23;50.79;101748.16;5271346;28;20406;-64
2022/05/12 11:00:08;;;;;;;5.10;2.83;;;;;;;18.28;50.24;101747.75;5272375;28;20090;-66
2022/05/12 11:02:44;;;;;;;5.55;3.05;;;;;;;18.30;46.94;101740.34;5273202;28;20024;-64
2022/05/12 11:05:42;;;;;;;7.75;3.70;;;;;;;18.52;49.69;101744.53;5275842;28;20028;-63
2022/05/12 11:08:25;;;;;;;7.70;4.18;;;;;;;18.74;47.99;101734.38;5272870;28;20567;-65
2022/05/12 11:11:08;;;;;;;5.50;4.00;;;;;;;18.85;46.57;101734.22;5272702;28;20060;-64
2022/05/12 11:13:56;;;;;;;8.30;4.03;;;;;;;18.80;46.55;101739.22;5276187;28;20020;-64
2022/05/12 11:16:56;;;;;;;6.93;3.22;;;;;;;18.59;45.28;101718.63;5272509;28;20092;-64
2022/05/12 11:19:27;;;;;;;6.35;3.38;;;;;;;18.61;45.83;101727.44;5267251;28;20044;-64
2022/05/12 11:22:10;;;;;;;4.90;3.20;;;;;;;18.84;47.49;101731.66;5272312;28;20046;-64
2022/05/12 11:25:13;;;;;;;6.28;3.38;;;;;;;19.05;47.93;101736.81;5275101;28;20116;-64
2022/05/12 11:31:12;;;;;;;6.45;3.90;;;;;;;19.26;49.58;101720.31;5276068;28;20028;-65
2022/05/12 11:33:54;;;;;;;7.20;3.83;;;;;;;19.17;45.18;101727.47;5273276;28;20025;-65
2022/05/12 11:36:37;;;;;;;7.43;3.40;;;;;;;19.19;43.59;101722.75;5277746;28;20036;-65
2022/05/12 11:39:51;;;;;;;7.93;3.00;;;;;;;19.31;46.00;101716.13;5268689;28;20032;-65
2022/05/12 11:42:25;;;;;;;7.22;2.92;;;;;;;19.18;41.79;101711.09;5271551;28;20478;-64
2022/05/12 11:45:26;;;;;;;5.47;2.63;;;;;;;19.19;43.61;101709.22;5270389;28;20115;-64
2022/05/12 11:48:10;;;;;;;5.85;2.60;;;;;;;19.07;41.92;101721.28;5273698;28;20508;-64
2022/05/12 11:50:59;;;;;;;5.82;2.45;;;;;;;19.16;41.86;101717.66;5273688;28;20044;-64
2022/05/12 11:53:50;;;;;;;6.13;2.20;;;;;;;19.17;42.69;101716.66;5273281;28;20444;-64
2022/05/12 11:56:53;;;;;;;6.38;2.30;;;;;;;19.21;44.09;101718.03;5278620;28;20089;-64
2022/05/12 11:59:30;;;;;;;5.60;1.67;;;;;;;19.12;42.57;101725.22;5265361;28;20044;-65
2022/05/12 12:02:23;;;;;;;5.70;2.10;;;;;;;19.10;46.96;101720.94;5271765;28;20032;-64
2022/05/12 12:05:32;;;;;;;7.13;2.08;;;;;;;19.32;44.08;101725.94;5262657;28;20408;-64
2022/05/12 12:08:07;;;;;;;5.57;2.03;;;;;;;19.23;43.41;101710.63;5269980;28;20112;-65
2022/05/12 12:10:40;;;;;;;7.85;2.28;;;;;;;19.30;41.97;101714.41;5273156;28;20044;-64
2022/05/12 12:13:14;;;;;;;7.15;1.98;;;;;;;19.43;43.31;101724.03;5272595;28;20143;-64
2022/05/12 12:15:57;;;;;;;;;;;;;;;19.64;45.04;101727.28;5274849;28;20061;-65